Time;durP1;ratioP1;P1;durP2;ratioP2;P2;SDS_P1;SDS_P2;PMS_P1;PMS_P2;Temp;Humidity;BMP_temperature;BMP_pressure;BME280_temperature;BME280_humidity;BME280_pressure;Samples;Min_cycle;Max_cycle;Signal;HPM_P1;HPM_P2
2023/10/02 00:01:20;;;;;;;;;;;;;;;;;;6332689;28;19907;-84
2023/10/02 00:04:23;;;;;;;;;;;;;;;;;;6351969;28;19915;-84
2023/10/02 00:07:26;;;;;;;;;;;;;;;;;;6350642;28;19995;-84
2023/10/02 00:10:29;;;;;;;;;;;;;;;;;;6333824;28;20299;-84
2023/10/02 00:13:30;;;;;;;;;;;;;;;;;;6332488;28;19916;-84
2023/10/02 00:16:31;;;;;;;;;;;;;;;;;;6350476;28;19920;-84
2023/10/02 00:19:31;;;;;;;;;;;;;;;;;;6351174;28;19908;-84
2023/10/02 00:22:34;;;;;;;;;;;;;;;;;;6332118;28;19908;-84
2023/10/02 00:25:51;;;;;;;;;;;;;;;;;;6333342;28;19908;-84
2023/10/02 00:28:51;;;;;;;;;;;;;;;;;;6350195;28;20312;-84
2023/10/02 00:31:52;;;;;;;;;;;;;;;;;;6350816;28;19961;-84
2023/10/02 00:34:52;;;;;;;;;;;;;;;;;;6350327;28;19915;-84
2023/10/02 00:37:52;;;;;;;;;;;;;;;;;;6331850;28;19907;-84
2023/10/02 00:40:52;;;;;;;;;;;;;;;;;;6350591;28;20006;-84
2023/10/02 00:43:53;;;;;;;;;;;;;;;;;;6331607;28;19999;-84
2023/10/02 00:46:53;;;;;;;;;;;;;;;;;;6349827;28;19912;-84
2023/10/02 00:50:06;;;;;;;;;;;;;;;;;;6349644;28;19911;-84
2023/10/02 00:53:06;;;;;;;;;;;;;;;;;;6350065;28;20089;-84
2023/10/02 00:56:19;;;;;;;;;;;;;;;;;;6322887;28;20286;-84
2023/10/02 00:59:23;;;;;;;;;;;;;;;;;;6299360;28;19915;-83
2023/10/02 01:02:23;;;;;;;;;;;;;;;;;;6324921;28;19913;-92
2023/10/02 01:05:30;;;;;;;;;;;;;;;;;;6324314;28;19957;-92
2023/10/02 01:08:49;;;;;;;;;;;;;;;;;;6306961;28;20266;-92
2023/10/02 01:11:49;;;;;;;;;;;;;;;;;;6324966;28;19947;-92
2023/10/02 01:14:52;;;;;;;;;;;;;;;;;;6324111;28;19908;-90
2023/10/02 01:17:52;;;;;;;;;;;;;;;;;;6305998;28;19909;-90
2023/10/02 01:20:56;;;;;;;;;;;;;;;;;;6305899;28;19908;-89
2023/10/02 01:24:09;;;;;;;;;;;;;;;;;;6324652;28;19908;-90
2023/10/02 01:27:10;;;;;;;;;;;;;;;;;;6305715;28;19995;-91
2023/10/02 01:30:16;;;;;;;;;;;;;;;;;;6324441;28;19915;-90
2023/10/02 01:33:26;;;;;;;;;;;;;;;;;;6305799;28;19909;-91
2023/10/02 01:36:28;;;;;;;;;;;;;;;;;;6323518;28;19912;-91
2023/10/02 01:39:28;;;;;;;;;;;;;;;;;;6324963;28;19935;-90
2023/10/02 01:42:28;;;;;;;;;;;;;;;;;;6299545;28;19915;-91
2023/10/02 01:45:34;;;;;;;;;;;;;;;;;;6305217;28;19908;-90
2023/10/02 01:48:37;;;;;;;;;;;;;;;;;;6324089;28;20381;-91
2023/10/02 01:51:41;;;;;;;;;;;;;;;;;;6323643;28;19954;-90
2023/10/02 01:54:44;;;;;;;;;;;;;;;;;;6323191;28;19908;-90
2023/10/02 01:57:44;;;;;;;;;;;;;;;;;;6344776;28;19916;-90
2023/10/02 02:00:47;;;;;;;;;;;;;;;;;;6330954;28;19914;-91
2023/10/02 02:03:48;;;;;;;;;;;;;;;;;;6348376;28;20294;-90
2023/10/02 02:06:51;;;;;;;;;;;;;;;;;;6349147;28;20270;-83
2023/10/02 02:09:53;;;;;;;;;;;;;;;;;;6348356;28;19929;-83
2023/10/02 02:12:55;;;;;;;;;;;;;;;;;;6347955;28;20066;-83
2023/10/02 02:16:07;;;;;;;;;;;;;;;;;;6329525;28;19960;-83
2023/10/02 02:19:07;;;;;;;;;;;;;;;;;;6347494;28;20345;-83
2023/10/02 02:22:07;;;;;;;;;;;;;;;;;;6348457;28;19918;-83
2023/10/02 02:25:07;;;;;;;;;;;;;;;;;;6347944;28;19919;-82
2023/10/02 02:28:08;;;;;;;;;;;;;;;;;;6347676;28;19995;-83
2023/10/02 02:31:29;;;;;;;;;;;;;;;;;;6348377;28;19961;-83
2023/10/02 02:34:29;;;;;;;;;;;;;;;;;;6330118;28;19969;-83
2023/10/02 02:37:32;;;;;;;;;;;;;;;;;;6347709;28;19919;-82
2023/10/02 02:40:33;;;;;;;;;;;;;;;;;;6330062;28;19908;-83
2023/10/02 02:43:33;;;;;;;;;;;;;;;;;;6329464;28;19911;-84
2023/10/02 02:46:33;;;;;;;;;;;;;;;;;;6329308;28;19924;-83
2023/10/02 02:49:35;;;;;;;;;;;;;;;;;;6347714;28;19908;-84
2023/10/02 02:53:12;;;;;;;;;;;;;;;;;;6347642;28;20002;-83
2023/10/02 02:56:22;;;;;;;;;;;;;;;;;;6347054;28;19920;-84
2023/10/02 02:59:23;;;;;;;;;;;;;;;;;;6329156;28;19912;-83
2023/10/02 03:02:23;;;;;;;;;;;;;;;;;;6329137;28;19908;-83
2023/10/02 03:05:23;;;;;;;;;;;;;;;;;;6329186;28;19908;-84
2023/10/02 03:08:37;;;;;;;;;;;;;;;;;;6347324;28;19977;-83
2023/10/02 03:11:40;;;;;;;;;;;;;;;;;;6330050;28;19961;-84
2023/10/02 03:14:40;;;;;;;;;;;;;;;;;;6347329;28;19914;-83
2023/10/02 03:17:41;;;;;;;;;;;;;;;;;;6329126;28;19916;-84
2023/10/02 03:20:43;;;;;;;;;;;;;;;;;;6347317;28;19943;-83
2023/10/02 03:23:43;;;;;;;;;;;;;;;;;;6328906;28;19908;-84
2023/10/02 03:26:44;;;;;;;;;;;;;;;;;;6328776;28;19912;-84
2023/10/02 03:29:45;;;;;;;;;;;;;;;;;;6347738;28;19915;-84
2023/10/02 03:32:45;;;;;;;;;;;;;;;;;;6332533;28;19907;-83
2023/10/02 03:35:56;;;;;;;;;;;;;;;;;;6333196;28;19923;-83
2023/10/02 03:38:57;;;;;;;;;;;;;;;;;;6351890;28;19908;-84
2023/10/02 03:42:00;;;;;;;;;;;;;;;;;;6333466;28;20327;-83
2023/10/02 03:45:01;;;;;;;;;;;;;;;;;;6333003;28;20389;-83
2023/10/02 03:48:02;;;;;;;;;;;;;;;;;;6333298;28;19956;-84
2023/10/02 03:51:03;;;;;;;;;;;;;;;;;;6332976;28;20361;-83
2023/10/02 03:54:17;;;;;;;;;;;;;;;;;;6351843;28;19915;-84
2023/10/02 04:00:50;;;;;;;;;;;;;;;;;;6351025;28;20321;-84
2023/10/02 04:07:08;;;;;;;;;;;;;;;;;;6351868;28;19953;-83
2023/10/02 04:10:08;;;;;;;;;;;;;;;;;;6332863;28;20002;-84
2023/10/02 04:13:08;;;;;;;;;;;;;;;;;;6351269;28;19908;-84
2023/10/02 04:19:27;;;;;;;;;;;;;;;;;;6351273;28;19912;-84
2023/10/02 04:22:27;;;;;;;;;;;;;;;;;;6332231;28;19919;-84
2023/10/02 04:25:35;;;;;;;;;;;;;;;;;;6332389;28;20277;-83
2023/10/02 04:28:49;;;;;;;;;;;;;;;;;;6332233;28;20328;-84
2023/10/02 04:32:10;;;;;;;;;;;;;;;;;;6350998;28;19986;-84
2023/10/02 04:38:49;;;;;;;;;;;;;;;;;;6350020;28;19907;-83
2023/10/02 04:42:09;;;;;;;;;;;;;;;;;;6349430;28;19947;-83
2023/10/02 04:45:20;;;;;;;;;;;;;;;;;;6349714;28;19960;-83
2023/10/02 04:48:27;;;;;;;;;;;;;;;;;;6349945;28;19908;-83
2023/10/02 04:51:30;;;;;;;;;;;;;;;;;;6349704;28;19998;-83
2023/10/02 04:54:31;;;;;;;;;;;;;;;;;;6331087;28;20437;-83
2023/10/02 04:57:34;;;;;;;;;;;;;;;;;;6331432;28;19916;-83
2023/10/02 05:00:34;;;;;;;;;;;;;;;;;;6331360;28;19908;-83
2023/10/02 05:03:37;;;;;;;;;;;;;;;;;;6331257;28;19908;-83
2023/10/02 05:06:55;;;;;;;;;;;;;;;;;;6331181;28;19916;-83
2023/10/02 05:09:55;;;;;;;;;;;;;;;;;;6331061;28;20336;-83
2023/10/02 05:12:55;;;;;;;;;;;;;;;;;;6349788;28;20364;-83
2023/10/02 05:16:11;;;;;;;;;;;;;;;;;;6331232;28;19916;-83
2023/10/02 05:19:15;;;;;;;;;;;;;;;;;;6349926;28;20006;-83
2023/10/02 05:22:16;;;;;;;;;;;;;;;;;;6330891;28;19999;-83
2023/10/02 05:25:18;;;;;;;;;;;;;;;;;;6330855;28;20292;-83
2023/10/02 05:28:18;;;;;;;;;;;;;;;;;;6349271;28;20346;-83
2023/10/02 05:31:21;;;;;;;;;;;;;;;;;;6348914;28;19973;-83
2023/10/02 05:34:23;;;;;;;;;;;;;;;;;;6348719;28;20354;-84
2023/10/02 05:37:30;;;;;;;;;;;;;;;;;;6349650;28;19933;-83
2023/10/02 05:40:42;;;;;;;;;;;;;;;;;;6330425;28;20335;-83
2023/10/02 05:43:55;;;;;;;;;;;;;;;;;;6330357;28;20401;-83
2023/10/02 05:46:56;;;;;;;;;;;;;;;;;;6330437;28;19914;-84
2023/10/02 05:49:56;;;;;;;;;;;;;;;;;;6348572;28;20285;-84
2023/10/02 05:52:56;;;;;;;;;;;;;;;;;;6329762;28;20302;-83
2023/10/02 05:56:05;;;;;;;;;;;;;;;;;;6348184;28;19923;-84
2023/10/02 05:59:05;;;;;;;;;;;;;;;;;;6330285;28;20319;-84
2023/10/02 06:02:11;;;;;;;;;;;;;;;;;;6330003;28;19918;-83
2023/10/02 06:05:11;;;;;;;;;;;;;;;;;;6330158;28;19907;-84
2023/10/02 06:08:16;;;;;;;;;;;;;;;;;;6348608;28;19907;-83
2023/10/02 06:11:31;;;;;;;;;;;;;;;;;;6348130;28;19908;-83
2023/10/02 06:14:38;;;;;;;;;;;;;;;;;;6348717;28;19915;-83
2023/10/02 06:17:39;;;;;;;;;;;;;;;;;;6329676;28;19919;-83
2023/10/02 06:20:57;;;;;;;;;;;;;;;;;;6348573;28;19907;-83
2023/10/02 06:23:58;;;;;;;;;;;;;;;;;;6348181;28;20011;-83
2023/10/02 06:26:59;;;;;;;;;;;;;;;;;;6348298;28;19908;-83
2023/10/02 06:29:59;;;;;;;;;;;;;;;;;;6329784;28;19953;-83
2023/10/02 06:32:59;;;;;;;;;;;;;;;;;;6329715;28;20049;-83
2023/10/02 06:36:03;;;;;;;;;;;;;;;;;;6329549;28;19911;-83
2023/10/02 06:39:03;;;;;;;;;;;;;;;;;;6347992;28;20343;-83
2023/10/02 06:42:04;;;;;;;;;;;;;;;;;;6348498;28;19930;-83
2023/10/02 06:45:09;;;;;;;;;;;;;;;;;;6348123;28;19908;-82
2023/10/02 06:48:09;;;;;;;;;;;;;;;;;;6348352;28;20350;-88
2023/10/02 06:51:10;;;;;;;;;;;;;;;;;;6330023;28;19947;-88
2023/10/02 06:54:11;;;;;;;;;;;;;;;;;;6348396;28;20265;-89
2023/10/02 06:57:13;;;;;;;;;;;;;;;;;;6329273;28;19937;-88
2023/10/02 07:00:19;;;;;;;;;;;;;;;;;;6329410;28;19912;-88
2023/10/02 07:03:19;;;;;;;;;;;;;;;;;;6329314;28;19915;-89
2023/10/02 07:06:19;;;;;;;;;;;;;;;;;;6332897;28;19908;-89
2023/10/02 07:09:24;;;;;;;;;;;;;;;;;;6352487;28;19920;-89
2023/10/02 07:12:27;;;;;;;;;;;;;;;;;;6334189;28;19907;-89
2023/10/02 07:15:28;;;;;;;;;;;;;;;;;;6333781;28;19927;-91
2023/10/02 07:18:37;;;;;;;;;;;;;;;;;;6352149;28;19907;-90
2023/10/02 07:21:40;;;;;;;;;;;;;;;;;;6333637;28;19907;-89
2023/10/02 07:24:40;;;;;;;;;;;;;;;;;;6333581;28;20357;-88
2023/10/02 07:27:40;;;;;;;;;;;;;;;;;;6333525;28;19957;-89
2023/10/02 07:30:40;;;;;;;;;;;;;;;;;;6352095;28;19928;-90
2023/10/02 07:33:40;;;;;;;;;;;;;;;;;;6334390;28;19912;-90
2023/10/02 07:36:44;;;;;;;;;;;;;;;;;;6333808;28;20369;-90
2023/10/02 07:39:45;;;;;;;;;;;;;;;;;;6334366;28;19908;-89
2023/10/02 07:42:48;;;;;;;;;;;;;;;;;;6352134;28;19908;-91
2023/10/02 07:46:06;;;;;;;;;;;;;;;;;;6352992;28;19908;-90
2023/10/02 07:49:10;;;;;;;;;;;;;;;;;;6351544;28;20404;-90
2023/10/02 07:52:11;;;;;;;;;;;;;;;;;;6333393;28;20258;-89
2023/10/02 07:55:13;;;;;;;;;;;;;;;;;;6332819;28;20283;-89
2023/10/02 07:58:19;;;;;;;;;;;;;;;;;;6334105;28;20366;-83
2023/10/02 08:01:21;;;;;;;;;;;;;;;;;;6351126;28;20354;-82
2023/10/02 08:04:45;;;;;;;;;;;;;;;;;;6332797;28;19907;-82
2023/10/02 08:07:42;;;;;;;;;;;;;;;;;;6350705;28;19947;-82
2023/10/02 08:10:52;;;;;;;;;;;;;;;;;;6332620;28;19930;-81
2023/10/02 08:13:53;;;;;;;;;;;;;;;;;;6351287;28;19908;-82
2023/10/02 08:16:59;;;;;;;;;;;;;;;;;;6331553;28;19922;-82
2023/10/02 08:20:15;;;;;;;;;;;;;;;;;;6350809;28;19908;-82
2023/10/02 08:23:21;;;;;;;;;;;;;;;;;;6350558;28;20306;-82
2023/10/02 08:26:22;;;;;;;;;;;;;;;;;;6332500;28;19908;-82
2023/10/02 08:29:25;;;;;;;;;;;;;;;;;;6350408;28;19915;-82
2023/10/02 08:32:30;;;;;;;;;;;;;;;;;;6351033;28;19931;-82
2023/10/02 08:35:31;;;;;;;;;;;;;;;;;;6350376;28;19912;-82
2023/10/02 08:38:32;;;;;;;;;;;;;;;;;;6332573;28;19908;-83
2023/10/02 08:41:43;;;;;;;;;;;;;;;;;;6350797;28;19908;-82
2023/10/02 08:44:43;;;;;;;;;;;;;;;;;;6349988;28;20362;-82
2023/10/02 08:47:47;;;;;;;;;;;;;;;;;;6331779;28;19915;-83
2023/10/02 08:50:47;;;;;;;;;;;;;;;;;;6331694;28;19918;-82
2023/10/02 08:53:50;;;;;;;;;;;;;;;;;;6349883;28;19927;-82
2023/10/02 08:56:51;;;;;;;;;;;;;;;;;;6331556;28;19922;-83
2023/10/02 09:00:00;;;;;;;;;;;;;;;;;;6349768;28;19908;-82
2023/10/02 09:03:00;;;;;;;;;;;;;;;;;;6349668;28;19915;-83
2023/10/02 09:06:25;;;;;;;;;;;;;;;;;;6331287;28;19951;-83
2023/10/02 09:12:24;;;;;;;;;;;;;;;;;;6350601;28;20377;-82
2023/10/02 09:15:25;;;;;;;;;;;;;;;;;;6330998;28;19916;-82
2023/10/02 09:18:26;;;;;;;;;;;;;;;;;;6330966;28;20004;-82
2023/10/02 09:21:27;;;;;;;;;;;;;;;;;;6349600;28;20017;-82
2023/10/02 09:24:34;;;;;;;;;;;;;;;;;;6349506;28;19953;-82
2023/10/02 09:27:38;;;;;;;;;;;;;;;;;;6331043;28;20307;-82
2023/10/02 09:30:38;;;;;;;;;;;;;;;;;;6349636;28;19912;-83
2023/10/02 09:33:38;;;;;;;;;;;;;;;;;;6330761;28;19908;-82
2023/10/02 09:36:47;;;;;;;;;;;;;;;;;;6349491;28;20344;-82
2023/10/02 09:39:49;;;;;;;;;;;;;;;;;;6330593;28;19919;-81
2023/10/02 09:42:49;;;;;;;;;;;;;;;;;;6330440;28;19916;-83
2023/10/02 09:45:49;;;;;;;;;;;;;;;;;;6349426;28;20023;-82
2023/10/02 09:52:14;;;;;;;;;;;;;;;;;;6348716;28;19908;-82
2023/10/02 09:55:14;;;;;;;;;;;;;;;;;;6347877;28;19916;-81
2023/10/02 09:58:26;;;;;;;;;;;;;;;;;;6313134;28;21596;-82
2023/10/02 10:04:42;;;;;;;;;;;;;;;;;;6348358;28;19954;-82
2023/10/02 10:07:46;;;;;;;;;;;;;;;;;;6348545;28;19951;-82
2023/10/02 10:13:46;;;;;;;;;;;;;;;;;;6348043;28;19907;-82
2023/10/02 10:16:46;;;;;;;;;;;;;;;;;;6329859;28;19912;-89
2023/10/02 10:19:46;;;;;;;;;;;;;;;;;;6348181;28;19930;-89
2023/10/02 10:22:56;;;;;;;;;;;;;;;;;;6348787;28;19927;-89
2023/10/02 10:26:07;;;;;;;;;;;;;;;;;;6329727;28;19972;-89
2023/10/02 10:29:07;;;;;;;;;;;;;;;;;;6348011;28;19907;-89
2023/10/02 10:32:07;;;;;;;;;;;;;;;;;;6348064;28;19912;-89
2023/10/02 10:35:15;;;;;;;;;;;;;;;;;;6347872;28;19908;-89
2023/10/02 10:38:15;;;;;;;;;;;;;;;;;;6347978;28;20354;-89
2023/10/02 10:41:16;;;;;;;;;;;;;;;;;;6351706;28;19908;-89
2023/10/02 10:44:17;;;;;;;;;;;;;;;;;;6353060;28;19957;-91
2023/10/02 10:47:18;;;;;;;;;;;;;;;;;;6334780;28;19912;-89
2023/10/02 10:50:29;;;;;;;;;;;;;;;;;;6335378;28;19976;-88
2023/10/02 10:53:29;;;;;;;;;;;;;;;;;;6334361;28;19912;-88
2023/10/02 10:56:30;;;;;;;;;;;;;;;;;;6334167;28;20522;-89
2023/10/02 10:59:33;;;;;;;;;;;;;;;;;;6352591;28;19955;-89
2023/10/02 11:02:36;;;;;;;;;;;;;;;;;;6334297;28;20450;-89
2023/10/02 11:05:36;;;;;;;;;;;;;;;;;;6353155;28;20271;-89
2023/10/02 11:08:40;;;;;;;;;;;;;;;;;;6334058;28;19907;-88
2023/10/02 11:11:50;;;;;;;;;;;;;;;;;;6333924;28;19912;-87
2023/10/02 11:14:51;;;;;;;;;;;;;;;;;;6334816;28;19908;-89
2023/10/02 11:17:51;;;;;;;;;;;;;;;;;;6352074;28;19991;-89
2023/10/02 11:20:51;;;;;;;;;;;;;;;;;;6352067;28;19957;-89
2023/10/02 11:23:55;;;;;;;;;;;;;;;;;;6334142;28;19908;-89
2023/10/02 11:26:55;;;;;;;;;;;;;;;;;;6334031;28;19907;-81
2023/10/02 11:30:01;;;;;;;;;;;;;;;;;;6352411;28;19908;-83
2023/10/02 11:33:04;;;;;;;;;;;;;;;;;;6351841;28;19943;-81
2023/10/02 11:36:11;;;;;;;;;;;;;;;;;;6351643;28;20258;-81
2023/10/02 11:39:16;;;;;;;;;;;;;;;;;;6352264;28;19908;-81
2023/10/02 11:42:20;;;;;;;;;;;;;;;;;;6351606;28;20402;-81
2023/10/02 11:45:20;;;;;;;;;;;;;;;;;;6352021;28;19914;-81
2023/10/02 11:48:21;;;;;;;;;;;;;;;;;;6333228;28;19908;-82
2023/10/02 11:51:21;;;;;;;;;;;;;;;;;;6350113;28;19915;-80
2023/10/02 11:54:22;;;;;;;;;;;;;;;;;;6351339;28;19908;-81
2023/10/02 11:57:23;;;;;;;;;;;;;;;;;;6351064;28;20044;-81
2023/10/02 12:00:24;;;;;;;;;;;;;;;;;;6351900;28;20326;-82
2023/10/02 12:03:24;;;;;;;;;;;;;;;;;;6333525;28;19912;-81
2023/10/02 12:06:24;;;;;;;;;;;;;;;;;;6351023;28;19960;-82
2023/10/02 12:09:25;;;;;;;;;;;;;;;;;;6350929;28;19976;-82
2023/10/02 12:12:25;;;;;;;;;;;;;;;;;;6350882;28;19912;-82
2023/10/02 12:15:25;;;;;;;;;;;;;;;;;;6350735;28;19930;-81
2023/10/02 12:18:26;;;;;;;;;;;;;;;;;;6350592;28;19912;-82
2023/10/02 12:21:28;;;;;;;;;;;;;;;;;;6350793;28;19908;-81
2023/10/02 12:24:28;;;;;;;;;;;;;;;;;;6350737;28;20336;-82
2023/10/02 12:27:28;;;;;;;;;;;;;;;;;;6350724;28;19912;-82
2023/10/02 12:30:28;;;;;;;;;;;;;;;;;;6350446;28;19970;-80
2023/10/02 12:33:30;;;;;;;;;;;;;;;;;;6351033;28;19915;-82
2023/10/02 12:36:30;;;;;;;;;;;;;;;;;;6350734;28;20352;-81
2023/10/02 12:39:30;;;;;;;;;;;;;;;;;;6350578;28;20349;-82
2023/10/02 12:42:30;;;;;;;;;;;;;;;;;;6331970;28;19914;-82
2023/10/02 12:45:35;;;;;;;;;;;;;;;;;;6350117;28;20293;-82
2023/10/02 12:48:35;;;;;;;;;;;;;;;;;;6331733;28;19923;-82
2023/10/02 12:51:35;;;;;;;;;;;;;;;;;;6331975;28;19960;-82
2023/10/02 12:54:35;;;;;;;;;;;;;;;;;;6350181;28;19907;-81
2023/10/02 12:57:36;;;;;;;;;;;;;;;;;;6349613;28;20274;-82
2023/10/02 13:00:37;;;;;;;;;;;;;;;;;;6349737;28;19908;-82
2023/10/02 13:03:37;;;;;;;;;;;;;;;;;;6331371;28;20011;-81
2023/10/02 13:06:38;;;;;;;;;;;;;;;;;;6331214;28;20045;-81
2023/10/02 13:09:38;;;;;;;;;;;;;;;;;;6331936;28;19955;-82
2023/10/02 13:12:38;;;;;;;;;;;;;;;;;;6349299;28;19911;-82
2023/10/02 13:15:39;;;;;;;;;;;;;;;;;;6331312;28;19916;-81
2023/10/02 13:18:39;;;;;;;;;;;;;;;;;;6349871;28;19908;-82
2023/10/02 13:21:42;;;;;;;;;;;;;;;;;;6349359;28;19912;-82
2023/10/02 13:24:42;;;;;;;;;;;;;;;;;;6330596;28;19907;-82
2023/10/02 13:27:43;;;;;;;;;;;;;;;;;;6348869;28;19915;-81
2023/10/02 13:30:43;;;;;;;;;;;;;;;;;;6348910;28;19908;-82
2023/10/02 13:33:52;;;;;;;;;;;;;;;;;;6330606;28;19914;-81
2023/10/02 13:36:52;;;;;;;;;;;;;;;;;;6349159;28;20343;-82
2023/10/02 13:39:53;;;;;;;;;;;;;;;;;;6330155;28;19908;-82
2023/10/02 13:42:53;;;;;;;;;;;;;;;;;;6330377;28;20021;-82
2023/10/02 13:45:53;;;;;;;;;;;;;;;;;;6330464;28;20426;-82
2023/10/02 13:48:53;;;;;;;;;;;;;;;;;;6330376;28;19958;-81
2023/10/02 13:51:54;;;;;;;;;;;;;;;;;;6330126;28;19958;-81
2023/10/02 13:54:55;;;;;;;;;;;;;;;;;;6330905;28;19914;-82
2023/10/02 13:57:56;;;;;;;;;;;;;;;;;;6329909;28;20365;-81
2023/10/02 14:00:57;;;;;;;;;;;;;;;;;;6330933;28;19908;-82
2023/10/02 14:03:57;;;;;;;;;;;;;;;;;;6348669;28;19931;-82
2023/10/02 14:06:57;;;;;;;;;;;;;;;;;;6348253;28;19923;-81
2023/10/02 14:09:57;;;;;;;;;;;;;;;;;;6348747;28;19919;-82
2023/10/02 14:13:01;;;;;;;;;;;;;;;;;;6348281;28;20034;-81
2023/10/02 14:16:01;;;;;;;;;;;;;;;;;;6347372;28;19918;-82
2023/10/02 14:19:01;;;;;;;;;;;;;;;;;;6329912;28;19907;-82
2023/10/02 14:22:01;;;;;;;;;;;;;;;;;;6329945;28;19915;-81
2023/10/02 14:25:06;;;;;;;;;;;;;;;;;;6330114;28;20414;-81
2023/10/02 14:28:08;;;;;;;;;;;;;;;;;;6348287;28;19915;-81
2023/10/02 14:31:09;;;;;;;;;;;;;;;;;;6329717;28;20361;-82
2023/10/02 14:34:09;;;;;;;;;;;;;;;;;;6329452;28;19914;-82
2023/10/02 14:37:09;;;;;;;;;;;;;;;;;;6329537;28;19976;-81
2023/10/02 14:40:10;;;;;;;;;;;;;;;;;;6348045;28;20361;-82
2023/10/02 14:43:12;;;;;;;;;;;;;;;;;;6347828;28;20338;-83
2023/10/02 14:46:12;;;;;;;;;;;;;;;;;;6347640;28;19908;-83
2023/10/02 14:49:12;;;;;;;;;;;;;;;;;;6348518;28;19915;-82
2023/10/02 14:52:12;;;;;;;;;;;;;;;;;;6329199;28;19908;-83
2023/10/02 14:55:17;;;;;;;;;;;;;;;;;;6347524;28;19908;-82
2023/10/02 14:58:18;;;;;;;;;;;;;;;;;;6347875;28;20296;-83
2023/10/02 15:01:19;;;;;;;;;;;;;;;;;;6348056;28;19908;-83
2023/10/02 15:04:19;;;;;;;;;;;;;;;;;;6329460;28;20320;-82
2023/10/02 15:07:19;;;;;;;;;;;;;;;;;;6347577;28;20328;-82
2023/10/02 15:10:21;;;;;;;;;;;;;;;;;;6329347;28;19908;-82
2023/10/02 15:13:22;;;;;;;;;;;;;;;;;;6347503;28;19912;-82
2023/10/02 15:16:22;;;;;;;;;;;;;;;;;;6330623;28;19954;-82
2023/10/02 15:19:22;;;;;;;;;;;;;;;;;;6347759;28;19991;-82
2023/10/02 15:22:22;;;;;;;;;;;;;;;;;;6347592;28;19930;-83
2023/10/02 15:25:22;;;;;;;;;;;;;;;;;;6347480;28;19919;-83
2023/10/02 15:28:23;;;;;;;;;;;;;;;;;;6333917;28;19908;-83
2023/10/02 15:31:23;;;;;;;;;;;;;;;;;;6334655;28;20250;-82
2023/10/02 15:34:23;;;;;;;;;;;;;;;;;;6352862;28;19990;-83
2023/10/02 15:37:24;;;;;;;;;;;;;;;;;;6352256;28;20011;-82
2023/10/02 15:40:24;;;;;;;;;;;;;;;;;;6352341;28;19914;-83
2023/10/02 15:43:25;;;;;;;;;;;;;;;;;;6351919;28;19912;-83
2023/10/02 15:46:28;;;;;;;;;;;;;;;;;;6351633;28;19990;-83
2023/10/02 15:49:28;;;;;;;;;;;;;;;;;;6352170;28;20030;-81
2023/10/02 15:52:29;;;;;;;;;;;;;;;;;;6333433;28;19933;-82
2023/10/02 15:55:29;;;;;;;;;;;;;;;;;;6351139;28;19973;-83
2023/10/02 15:58:29;;;;;;;;;;;;;;;;;;6333051;28;19947;-82
2023/10/02 16:01:29;;;;;;;;;;;;;;;;;;6351546;28;20098;-83
2023/10/02 16:04:29;;;;;;;;;;;;;;;;;;6333678;28;20028;-83
2023/10/02 16:07:29;;;;;;;;;;;;;;;;;;6351332;28;20266;-83
2023/10/02 16:10:30;;;;;;;;;;;;;;;;;;6351049;28;19908;-82
2023/10/02 16:13:30;;;;;;;;;;;;;;;;;;6351647;28;20347;-82
2023/10/02 16:16:30;;;;;;;;;;;;;;;;;;6350897;28;19912;-83
2023/10/02 16:19:34;;;;;;;;;;;;;;;;;;6351209;28;19998;-83
2023/10/02 16:22:36;;;;;;;;;;;;;;;;;;6350796;28;19953;-82
2023/10/02 16:25:36;;;;;;;;;;;;;;;;;;6332665;28;19952;-82
2023/10/02 16:28:36;;;;;;;;;;;;;;;;;;6332291;28;20041;-83
2023/10/02 16:31:42;;;;;;;;;;;;;;;;;;6350511;28;20348;-81
2023/10/02 16:34:42;;;;;;;;;;;;;;;;;;6350750;28;20315;-80
2023/10/02 16:37:42;;;;;;;;;;;;;;;;;;6349023;28;19912;-81
2023/10/02 16:40:42;;;;;;;;;;;;;;;;;;6331822;28;19919;-81
2023/10/02 16:43:43;;;;;;;;;;;;;;;;;;6350378;28;19908;-81
2023/10/02 16:46:45;;;;;;;;;;;;;;;;;;6331402;28;19917;-81
2023/10/02 16:49:47;;;;;;;;;;;;;;;;;;6349836;28;20046;-81
2023/10/02 16:52:47;;;;;;;;;;;;;;;;;;6331264;28;19964;-81
2023/10/02 16:55:48;;;;;;;;;;;;;;;;;;6349346;28;19923;-81
2023/10/02 16:58:51;;;;;;;;;;;;;;;;;;6331479;28;20327;-81
2023/10/02 17:01:51;;;;;;;;;;;;;;;;;;6349722;28;19908;-82
2023/10/02 17:04:51;;;;;;;;;;;;;;;;;;6349533;28;19976;-81
2023/10/02 17:07:53;;;;;;;;;;;;;;;;;;6349535;28;19908;-81
2023/10/02 17:10:53;;;;;;;;;;;;;;;;;;6330989;28;19911;-81
2023/10/02 17:13:54;;;;;;;;;;;;;;;;;;6349008;28;20297;-81
2023/10/02 17:16:55;;;;;;;;;;;;;;;;;;6348912;28;19919;-80
2023/10/02 17:19:59;;;;;;;;;;;;;;;;;;6349570;28;19908;-80
2023/10/02 17:22:59;;;;;;;;;;;;;;;;;;6331031;28;20323;-81
2023/10/02 17:26:00;;;;;;;;;;;;;;;;;;6330510;28;19908;-81
2023/10/02 17:29:02;;;;;;;;;;;;;;;;;;6348873;28;20381;-81
2023/10/02 17:32:02;;;;;;;;;;;;;;;;;;6330525;28;19907;-80
2023/10/02 17:35:02;;;;;;;;;;;;;;;;;;6330425;28;19914;-80
2023/10/02 17:38:03;;;;;;;;;;;;;;;;;;6348999;28;20257;-82
2023/10/02 17:41:03;;;;;;;;;;;;;;;;;;6348609;28;19912;-82
2023/10/02 17:44:05;;;;;;;;;;;;;;;;;;6330549;28;19933;-82
2023/10/02 17:47:05;;;;;;;;;;;;;;;;;;6348971;28;19915;-81
2023/10/02 17:50:05;;;;;;;;;;;;;;;;;;6329366;28;19908;-82
2023/10/02 17:53:06;;;;;;;;;;;;;;;;;;6348567;28;19914;-82
2023/10/02 17:56:10;;;;;;;;;;;;;;;;;;6348187;28;19919;-82
2023/10/02 17:59:10;;;;;;;;;;;;;;;;;;6330066;28;19908;-80
2023/10/02 18:02:10;;;;;;;;;;;;;;;;;;6329946;28;19959;-80
2023/10/02 18:05:10;;;;;;;;;;;;;;;;;;6329848;28;19908;-79
2023/10/02 18:08:11;;;;;;;;;;;;;;;;;;6329979;28;19958;-82
2023/10/02 18:11:11;;;;;;;;;;;;;;;;;;6348765;28;19912;-82
2023/10/02 18:14:12;;;;;;;;;;;;;;;;;;6348191;28;19931;-82
2023/10/02 18:17:12;;;;;;;;;;;;;;;;;;6329819;28;20002;-83
2023/10/02 18:20:14;;;;;;;;;;;;;;;;;;6348034;28;20403;-82
2023/10/02 18:23:15;;;;;;;;;;;;;;;;;;6348172;28;19927;-82
2023/10/02 18:26:15;;;;;;;;;;;;;;;;;;6329916;28;19908;-83
2023/10/02 18:29:15;;;;;;;;;;;;;;;;;;6348003;28;19990;-81
2023/10/02 18:32:16;;;;;;;;;;;;;;;;;;6347875;28;19943;-82
2023/10/02 18:35:18;;;;;;;;;;;;;;;;;;6329575;28;19908;-82
2023/10/02 18:38:18;;;;;;;;;;;;;;;;;;6348316;28;20014;-82
2023/10/02 18:41:18;;;;;;;;;;;;;;;;;;6329395;28;19918;-82
2023/10/02 18:44:19;;;;;;;;;;;;;;;;;;6329337;28;19908;-82
2023/10/02 18:47:20;;;;;;;;;;;;;;;;;;6347438;28;20405;-81
2023/10/02 18:50:20;;;;;;;;;;;;;;;;;;6348042;28;19908;-82
2023/10/02 18:53:21;;;;;;;;;;;;;;;;;;6347587;28;19908;-82
2023/10/02 18:56:21;;;;;;;;;;;;;;;;;;6328666;28;20014;-82
2023/10/02 18:59:21;;;;;;;;;;;;;;;;;;6329135;28;19907;-82
2023/10/02 19:02:23;;;;;;;;;;;;;;;;;;6351040;28;19908;-82
2023/10/02 19:05:24;;;;;;;;;;;;;;;;;;6353096;28;20378;-82
2023/10/02 19:08:26;;;;;;;;;;;;;;;;;;6352618;28;19929;-82
2023/10/02 19:11:27;;;;;;;;;;;;;;;;;;6352247;28;20393;-82
2023/10/02 19:14:27;;;;;;;;;;;;;;;;;;6333951;28;19907;-82
2023/10/02 19:17:27;;;;;;;;;;;;;;;;;;6352043;28;19919;-82
2023/10/02 19:20:28;;;;;;;;;;;;;;;;;;6352501;28;19912;-82
2023/10/02 19:23:29;;;;;;;;;;;;;;;;;;6333826;28;19911;-79
2023/10/02 19:26:33;;;;;;;;;;;;;;;;;;6352332;28;19957;-80
2023/10/02 19:29:33;;;;;;;;;;;;;;;;;;6333347;28;20020;-80
2023/10/02 19:32:34;;;;;;;;;;;;;;;;;;6352709;28;20361;-80
2023/10/02 19:35:34;;;;;;;;;;;;;;;;;;6351592;28;20270;-80
2023/10/02 19:38:37;;;;;;;;;;;;;;;;;;6352011;28;19908;-79
2023/10/02 19:41:37;;;;;;;;;;;;;;;;;;6333589;28;19946;-79
2023/10/02 19:44:37;;;;;;;;;;;;;;;;;;6351193;28;19911;-80
2023/10/02 19:47:38;;;;;;;;;;;;;;;;;;6351419;28;19912;-80
2023/10/02 19:50:38;;;;;;;;;;;;;;;;;;6332961;28;19955;-81
2023/10/02 19:53:38;;;;;;;;;;;;;;;;;;6351925;28;19915;-81
2023/10/02 19:56:38;;;;;;;;;;;;;;;;;;6332869;28;20018;-80
2023/10/02 19:59:38;;;;;;;;;;;;;;;;;;6351167;28;19919;-80
2023/10/02 20:02:42;;;;;;;;;;;;;;;;;;6332981;28;20257;-81
2023/10/02 20:05:42;;;;;;;;;;;;;;;;;;6350901;28;20002;-80
2023/10/02 20:08:42;;;;;;;;;;;;;;;;;;6332687;28;19914;-80
2023/10/02 20:11:42;;;;;;;;;;;;;;;;;;6332232;28;19908;-81
2023/10/02 20:14:42;;;;;;;;;;;;;;;;;;6350820;28;20384;-81
2023/10/02 20:17:43;;;;;;;;;;;;;;;;;;6350587;28;19955;-81
2023/10/02 20:20:43;;;;;;;;;;;;;;;;;;6332241;28;19915;-82
2023/10/02 20:23:43;;;;;;;;;;;;;;;;;;6351143;28;19915;-82
2023/10/02 20:26:43;;;;;;;;;;;;;;;;;;6350688;28;19920;-81
2023/10/02 20:29:43;;;;;;;;;;;;;;;;;;6350772;28;20350;-80
2023/10/02 20:32:43;;;;;;;;;;;;;;;;;;6350627;28;19915;-81
2023/10/02 20:35:43;;;;;;;;;;;;;;;;;;6349861;28;19915;-81
2023/10/02 20:38:43;;;;;;;;;;;;;;;;;;6331863;28;19954;-81
2023/10/02 20:41:44;;;;;;;;;;;;;;;;;;6350701;28;20354;-81
2023/10/02 20:44:44;;;;;;;;;;;;;;;;;;6331940;28;20377;-81
2023/10/02 20:47:45;;;;;;;;;;;;;;;;;;6350115;28;20077;-81
2023/10/02 20:50:45;;;;;;;;;;;;;;;;;;6331945;28;19908;-81
2023/10/02 20:53:45;;;;;;;;;;;;;;;;;;6349851;28;20286;-81
2023/10/02 20:56:45;;;;;;;;;;;;;;;;;;6349483;28;20384;-81
2023/10/02 20:59:45;;;;;;;;;;;;;;;;;;6331457;28;19908;-81
2023/10/02 21:02:46;;;;;;;;;;;;;;;;;;6349626;28;19957;-81
2023/10/02 21:05:47;;;;;;;;;;;;;;;;;;6349527;28;19931;-81
2023/10/02 21:08:50;;;;;;;;;;;;;;;;;;6331193;28;19908;-81
2023/10/02 21:11:51;;;;;;;;;;;;;;;;;;6331110;28;19908;-81